Lanesborough, MA (01237)

2:53 AM EDT on September 27, 2016 (GMT -0400)
APRSWXNET | | Change Station

Elev 1123 ft 42.49 °N, 73.24 °W | Updated 25 minutes ago

Rain
Rain Mist
56 °F
Feels Like 56 °F
N
0
Wind Variable Wind from WNW
Gusts 0.0 mph

Today
High -- | Low -- °F
--% Chance of Precip.
Yesterday
High -- | Low -- °F
Precip. -- in
Pressure 29.93 in
Visibility 2.5 miles
Clouds Scattered Clouds 2000 ft
Mostly Cloudy 2400 ft
Overcast 2800 ft
Dew Point 53 °F
Humidity 91%
Rainfall in
Snow Depth Not available.
6:46 AM 6:40 PM
Waning Crescent, 13% visible
SPECI KPSF 270626Z AUTO 23004KT 2 1/2SM RA BR SCT020 BKN024 OVC028 14/12 A2993 RMK AO2 RAB02 P0008 T01390117
Pressure 29.93 in
Visibility 2.5 miles
Clouds Scattered Clouds 2000 ft
Mostly Cloudy 2400 ft
Overcast 2800 ft
Dew Point 53 °F
Humidity 91%
Rainfall in
Snow Depth Not available.
6:46 AM 6:40 PM
Waning Crescent, 13% visible
SPECI KPSF 270626Z AUTO 23004KT 2 1/2SM RA BR SCT020 BKN024 OVC028 14/12 A2993 RMK AO2 RAB02 P0008 T01390117

10-Day Weather Forecast

Almanac

Astronomy

Sep. 27, 2016 Rise Set
Actual Time
Civil Twilight
Nautical Twilight
Astronomical Twilight
Moon
Length of Visible Light
Length of Day
Tomorrow will be .
, % of the Moon is Illuminated

Today's Extremes

State Highs State Lows

Community

WunderPhotos

Upload Photos

1,942,040 photos uploaded!

WunderBlog® & News

Nearby

Air Quality

  Air Quality AQ Index Pollutant
Not available.

Snow Depth

Station Depth Elevation

Earthquake Activity

City Distance Mag. Time & Date
Minimum magnitude displayed is 2.5.

Coastal Water Temperatures

Place Temperature

Stations

Nearby Weather Stations

Station Location Temp. Windchill Dew Point Humidity Wind Precip. Elev Updated Type
                   

Watches & Warnings

There are currently no watches in effect.